sensor_id;sensor_type;location;lat;lon;timestamp;P1;durP1;ratioP1;P2;durP2;ratioP2
75386;SDS011;63966;47.914;22.266;2024-03-07T00:02:49;11.77;;;6.18;;
75386;SDS011;63966;47.914;22.266;2024-03-07T00:05:54;10.07;;;5.97;;
75386;SDS011;63966;47.914;22.266;2024-03-07T00:08:57;11.15;;;5.70;;
75386;SDS011;63966;47.914;22.266;2024-03-07T00:12:04;9.27;;;5.07;;
75386;SDS011;63966;47.914;22.266;2024-03-07T00:15:10;10.27;;;5.77;;
75386;SDS011;63966;47.914;22.266;2024-03-07T00:18:15;11.05;;;5.38;;
75386;SDS011;63966;47.914;22.266;2024-03-07T00:21:19;10.85;;;5.57;;
75386;SDS011;63966;47.914;22.266;2024-03-07T00:24:22;11.50;;;5.45;;
75386;SDS011;63966;47.914;22.266;2024-03-07T00:27:26;11.40;;;5.40;;
75386;SDS011;63966;47.914;22.266;2024-03-07T00:30:30;8.97;;;5.00;;
75386;SDS011;63966;47.914;22.266;2024-03-07T00:33:36;9.50;;;5.07;;
75386;SDS011;63966;47.914;22.266;2024-03-07T00:36:59;8.95;;;4.90;;
75386;SDS011;63966;47.914;22.266;2024-03-07T00:40:04;9.95;;;5.40;;
75386;SDS011;63966;47.914;22.266;2024-03-07T00:43:08;10.07;;;5.13;;
75386;SDS011;63966;47.914;22.266;2024-03-07T00:46:13;9.33;;;5.13;;
75386;SDS011;63966;47.914;22.266;2024-03-07T00:49:16;8.65;;;4.85;;
75386;SDS011;63966;47.914;22.266;2024-03-07T00:52:19;9.57;;;5.20;;
75386;SDS011;63966;47.914;22.266;2024-03-07T00:55:23;9.27;;;5.07;;
75386;SDS011;63966;47.914;22.266;2024-03-07T00:58:26;10.17;;;4.87;;
75386;SDS011;63966;47.914;22.266;2024-03-07T01:01:30;9.90;;;4.93;;
75386;SDS011;63966;47.914;22.266;2024-03-07T01:04:40;11.00;;;5.22;;
75386;SDS011;63966;47.914;22.266;2024-03-07T01:07:45;10.32;;;4.95;;
75386;SDS011;63966;47.914;22.266;2024-03-07T01:10:49;9.07;;;5.35;;
75386;SDS011;63966;47.914;22.266;2024-03-07T01:13:53;9.47;;;5.13;;
75386;SDS011;63966;47.914;22.266;2024-03-07T01:16:57;10.77;;;5.63;;
75386;SDS011;63966;47.914;22.266;2024-03-07T01:20:01;9.70;;;5.07;;
75386;SDS011;63966;47.914;22.266;2024-03-07T01:23:05;9.02;;;4.95;;
75386;SDS011;63966;47.914;22.266;2024-03-07T01:26:10;11.15;;;5.22;;
75386;SDS011;63966;47.914;22.266;2024-03-07T01:29:14;10.53;;;5.67;;
75386;SDS011;63966;47.914;22.266;2024-03-07T01:32:18;8.87;;;4.70;;
75386;SDS011;63966;47.914;22.266;2024-03-07T01:35:21;11.30;;;5.47;;
75386;SDS011;63966;47.914;22.266;2024-03-07T01:38:25;9.88;;;5.40;;
75386;SDS011;63966;47.914;22.266;2024-03-07T01:41:28;9.45;;;5.40;;
75386;SDS011;63966;47.914;22.266;2024-03-07T01:44:32;8.30;;;4.63;;
75386;SDS011;63966;47.914;22.266;2024-03-07T01:47:35;9.57;;;5.23;;
75386;SDS011;63966;47.914;22.266;2024-03-07T01:50:40;9.30;;;4.85;;
75386;SDS011;63966;47.914;22.266;2024-03-07T01:53:43;10.20;;;5.50;;
75386;SDS011;63966;47.914;22.266;2024-03-07T01:56:48;8.65;;;5.22;;
75386;SDS011;63966;47.914;22.266;2024-03-07T01:59:51;10.87;;;5.23;;
75386;SDS011;63966;47.914;22.266;2024-03-07T02:02:55;8.83;;;5.00;;
75386;SDS011;63966;47.914;22.266;2024-03-07T02:05:59;8.93;;;4.57;;
75386;SDS011;63966;47.914;22.266;2024-03-07T02:09:05;9.00;;;4.85;;
75386;SDS011;63966;47.914;22.266;2024-03-07T02:12:09;9.70;;;4.82;;
75386;SDS011;63966;47.914;22.266;2024-03-07T02:15:12;9.27;;;4.67;;
75386;SDS011;63966;47.914;22.266;2024-03-07T02:18:16;9.97;;;4.87;;
75386;SDS011;63966;47.914;22.266;2024-03-07T02:21:20;8.38;;;5.05;;
75386;SDS011;63966;47.914;22.266;2024-03-07T02:24:23;8.30;;;4.68;;
75386;SDS011;63966;47.914;22.266;2024-03-07T02:27:26;9.07;;;5.15;;
75386;SDS011;63966;47.914;22.266;2024-03-07T02:30:31;10.00;;;5.50;;
75386;SDS011;63966;47.914;22.266;2024-03-07T02:33:35;9.00;;;5.23;;
75386;SDS011;63966;47.914;22.266;2024-03-07T02:36:39;9.10;;;4.90;;
75386;SDS011;63966;47.914;22.266;2024-03-07T02:39:42;8.88;;;5.10;;
75386;SDS011;63966;47.914;22.266;2024-03-07T02:42:45;9.18;;;5.10;;
75386;SDS011;63966;47.914;22.266;2024-03-07T02:45:49;9.27;;;5.00;;
75386;SDS011;63966;47.914;22.266;2024-03-07T02:48:53;9.57;;;5.40;;
75386;SDS011;63966;47.914;22.266;2024-03-07T02:51:56;8.82;;;5.00;;
75386;SDS011;63966;47.914;22.266;2024-03-07T02:55:00;8.50;;;4.75;;
75386;SDS011;63966;47.914;22.266;2024-03-07T02:58:05;9.52;;;5.10;;
75386;SDS011;63966;47.914;22.266;2024-03-07T03:01:09;7.97;;;4.40;;
75386;SDS011;63966;47.914;22.266;2024-03-07T03:04:13;8.53;;;4.70;;
75386;SDS011;63966;47.914;22.266;2024-03-07T03:07:17;9.20;;;4.65;;
75386;SDS011;63966;47.914;22.266;2024-03-07T03:10:24;9.32;;;4.40;;
75386;SDS011;63966;47.914;22.266;2024-03-07T03:13:31;9.68;;;4.70;;
75386;SDS011;63966;47.914;22.266;2024-03-07T03:16:36;9.87;;;5.03;;
75386;SDS011;63966;47.914;22.266;2024-03-07T03:19:49;9.67;;;4.97;;
75386;SDS011;63966;47.914;22.266;2024-03-07T03:22:54;8.38;;;4.70;;
75386;SDS011;63966;47.914;22.266;2024-03-07T03:26:17;8.77;;;4.90;;
75386;SDS011;63966;47.914;22.266;2024-03-07T03:29:21;10.38;;;5.68;;
75386;SDS011;63966;47.914;22.266;2024-03-07T03:32:24;9.93;;;5.07;;
75386;SDS011;63966;47.914;22.266;2024-03-07T03:35:28;8.43;;;4.90;;
75386;SDS011;63966;47.914;22.266;2024-03-07T03:38:31;9.18;;;5.00;;
75386;SDS011;63966;47.914;22.266;2024-03-07T03:41:35;9.55;;;5.63;;
75386;SDS011;63966;47.914;22.266;2024-03-07T03:44:38;9.02;;;5.20;;
75386;SDS011;63966;47.914;22.266;2024-03-07T03:47:42;9.87;;;4.90;;
75386;SDS011;63966;47.914;22.266;2024-03-07T03:50:46;9.53;;;4.70;;
75386;SDS011;63966;47.914;22.266;2024-03-07T03:53:49;9.38;;;5.30;;
75386;SDS011;63966;47.914;22.266;2024-03-07T03:56:54;8.63;;;5.20;;
75386;SDS011;63966;47.914;22.266;2024-03-07T03:59:57;8.73;;;5.20;;
75386;SDS011;63966;47.914;22.266;2024-03-07T04:03:01;9.60;;;4.50;;
75386;SDS011;63966;47.914;22.266;2024-03-07T04:06:05;10.25;;;5.38;;
75386;SDS011;63966;47.914;22.266;2024-03-07T04:09:09;11.38;;;5.40;;
75386;SDS011;63966;47.914;22.266;2024-03-07T04:12:13;9.15;;;4.45;;
75386;SDS011;63966;47.914;22.266;2024-03-07T04:15:17;8.32;;;4.30;;
75386;SDS011;63966;47.914;22.266;2024-03-07T04:18:22;9.23;;;4.40;;
75386;SDS011;63966;47.914;22.266;2024-03-07T04:21:26;9.33;;;4.40;;
75386;SDS011;63966;47.914;22.266;2024-03-07T04:24:32;11.30;;;5.13;;
75386;SDS011;63966;47.914;22.266;2024-03-07T04:27:38;8.50;;;4.00;;
75386;SDS011;63966;47.914;22.266;2024-03-07T04:30:42;7.38;;;3.80;;
75386;SDS011;63966;47.914;22.266;2024-03-07T04:33:46;7.40;;;4.00;;
75386;SDS011;63966;47.914;22.266;2024-03-07T04:36:49;7.28;;;3.65;;
75386;SDS011;63966;47.914;22.266;2024-03-07T04:39:53;6.88;;;3.42;;
75386;SDS011;63966;47.914;22.266;2024-03-07T04:42:56;7.70;;;3.58;;
75386;SDS011;63966;47.914;22.266;2024-03-07T04:46:00;9.35;;;3.63;;
75386;SDS011;63966;47.914;22.266;2024-03-07T04:49:03;9.13;;;4.57;;
75386;SDS011;63966;47.914;22.266;2024-03-07T04:52:07;8.13;;;3.90;;
75386;SDS011;63966;47.914;22.266;2024-03-07T04:55:10;8.70;;;4.10;;
75386;SDS011;63966;47.914;22.266;2024-03-07T04:58:15;8.23;;;3.92;;
75386;SDS011;63966;47.914;22.266;2024-03-07T05:01:19;10.15;;;4.45;;
75386;SDS011;63966;47.914;22.266;2024-03-07T05:04:23;10.70;;;5.10;;
75386;SDS011;63966;47.914;22.266;2024-03-07T05:07:26;9.95;;;4.68;;
75386;SDS011;63966;47.914;22.266;2024-03-07T05:10:30;8.70;;;4.00;;
75386;SDS011;63966;47.914;22.266;2024-03-07T05:13:33;8.43;;;4.25;;
75386;SDS011;63966;47.914;22.266;2024-03-07T05:16:37;9.38;;;4.80;;
75386;SDS011;63966;47.914;22.266;2024-03-07T05:19:40;9.03;;;4.70;;
75386;SDS011;63966;47.914;22.266;2024-03-07T05:22:44;9.63;;;4.10;;
75386;SDS011;63966;47.914;22.266;2024-03-07T05:25:54;9.98;;;4.40;;
75386;SDS011;63966;47.914;22.266;2024-03-07T05:28:57;10.63;;;5.05;;
75386;SDS011;63966;47.914;22.266;2024-03-07T05:32:19;9.38;;;4.90;;
75386;SDS011;63966;47.914;22.266;2024-03-07T05:35:25;10.30;;;4.50;;
75386;SDS011;63966;47.914;22.266;2024-03-07T05:38:32;8.88;;;4.40;;
75386;SDS011;63966;47.914;22.266;2024-03-07T05:41:35;9.25;;;4.75;;
75386;SDS011;63966;47.914;22.266;2024-03-07T05:44:42;8.05;;;4.10;;
75386;SDS011;63966;47.914;22.266;2024-03-07T05:47:46;7.90;;;3.70;;
75386;SDS011;63966;47.914;22.266;2024-03-07T05:50:51;8.33;;;4.23;;
75386;SDS011;63966;47.914;22.266;2024-03-07T05:53:56;10.50;;;4.28;;
75386;SDS011;63966;47.914;22.266;2024-03-07T05:56:59;8.93;;;3.83;;
75386;SDS011;63966;47.914;22.266;2024-03-07T06:00:03;10.70;;;5.50;;
75386;SDS011;63966;47.914;22.266;2024-03-07T06:03:14;11.05;;;5.07;;
75386;SDS011;63966;47.914;22.266;2024-03-07T06:06:28;11.43;;;4.80;;
75386;SDS011;63966;47.914;22.266;2024-03-07T06:09:34;9.60;;;4.47;;
75386;SDS011;63966;47.914;22.266;2024-03-07T06:12:37;9.32;;;4.75;;
75386;SDS011;63966;47.914;22.266;2024-03-07T06:16:09;8.85;;;4.45;;
75386;SDS011;63966;47.914;22.266;2024-03-07T06:19:13;8.60;;;4.45;;
75386;SDS011;63966;47.914;22.266;2024-03-07T06:22:17;12.10;;;5.80;;
75386;SDS011;63966;47.914;22.266;2024-03-07T06:25:20;12.03;;;5.00;;
75386;SDS011;63966;47.914;22.266;2024-03-07T06:28:39;10.88;;;5.50;;
75386;SDS011;63966;47.914;22.266;2024-03-07T06:31:43;10.80;;;5.15;;
75386;SDS011;63966;47.914;22.266;2024-03-07T06:34:50;9.63;;;4.68;;
75386;SDS011;63966;47.914;22.266;2024-03-07T06:37:54;9.87;;;4.77;;
75386;SDS011;63966;47.914;22.266;2024-03-07T06:40:58;12.60;;;5.83;;
75386;SDS011;63966;47.914;22.266;2024-03-07T06:44:01;10.57;;;5.22;;
75386;SDS011;63966;47.914;22.266;2024-03-07T06:47:05;16.05;;;7.72;;
75386;SDS011;63966;47.914;22.266;2024-03-07T06:50:09;11.23;;;6.07;;
75386;SDS011;63966;47.914;22.266;2024-03-07T06:53:28;10.40;;;5.17;;
75386;SDS011;63966;47.914;22.266;2024-03-07T06:56:32;11.40;;;5.68;;
75386;SDS011;63966;47.914;22.266;2024-03-07T06:59:35;15.35;;;7.30;;
75386;SDS011;63966;47.914;22.266;2024-03-07T07:02:39;10.30;;;4.70;;
75386;SDS011;63966;47.914;22.266;2024-03-07T07:05:44;11.90;;;5.80;;
75386;SDS011;63966;47.914;22.266;2024-03-07T07:08:48;11.17;;;5.50;;
75386;SDS011;63966;47.914;22.266;2024-03-07T07:11:53;11.57;;;6.30;;
75386;SDS011;63966;47.914;22.266;2024-03-07T07:14:57;10.13;;;5.63;;
75386;SDS011;63966;47.914;22.266;2024-03-07T07:18:01;10.68;;;5.80;;
75386;SDS011;63966;47.914;22.266;2024-03-07T07:21:05;11.02;;;5.35;;
75386;SDS011;63966;47.914;22.266;2024-03-07T07:24:13;9.50;;;4.57;;
75386;SDS011;63966;47.914;22.266;2024-03-07T07:27:16;11.87;;;5.70;;
75386;SDS011;63966;47.914;22.266;2024-03-07T07:30:21;12.15;;;6.47;;
75386;SDS011;63966;47.914;22.266;2024-03-07T07:33:25;10.20;;;5.13;;
75386;SDS011;63966;47.914;22.266;2024-03-07T07:36:29;12.15;;;5.88;;
75386;SDS011;63966;47.914;22.266;2024-03-07T07:39:33;11.83;;;5.70;;
75386;SDS011;63966;47.914;22.266;2024-03-07T07:42:37;11.10;;;5.80;;
75386;SDS011;63966;47.914;22.266;2024-03-07T07:45:41;13.25;;;6.80;;
75386;SDS011;63966;47.914;22.266;2024-03-07T07:48:44;11.50;;;5.15;;
75386;SDS011;63966;47.914;22.266;2024-03-07T07:51:48;11.25;;;5.68;;
75386;SDS011;63966;47.914;22.266;2024-03-07T07:54:54;8.83;;;4.60;;
75386;SDS011;63966;47.914;22.266;2024-03-07T07:57:58;12.17;;;6.60;;
75386;SDS011;63966;47.914;22.266;2024-03-07T08:01:06;11.05;;;5.53;;
75386;SDS011;63966;47.914;22.266;2024-03-07T08:04:12;10.48;;;4.68;;
75386;SDS011;63966;47.914;22.266;2024-03-07T08:07:16;11.18;;;5.30;;
75386;SDS011;63966;47.914;22.266;2024-03-07T08:10:21;9.07;;;5.17;;
75386;SDS011;63966;47.914;22.266;2024-03-07T08:13:26;9.40;;;4.40;;
75386;SDS011;63966;47.914;22.266;2024-03-07T08:16:30;10.38;;;5.30;;
75386;SDS011;63966;47.914;22.266;2024-03-07T08:19:34;7.65;;;3.80;;
75386;SDS011;63966;47.914;22.266;2024-03-07T08:22:38;9.35;;;4.40;;
75386;SDS011;63966;47.914;22.266;2024-03-07T08:25:43;8.67;;;4.37;;
75386;SDS011;63966;47.914;22.266;2024-03-07T08:28:46;10.23;;;4.80;;
75386;SDS011;63966;47.914;22.266;2024-03-07T08:31:54;11.65;;;5.43;;
75386;SDS011;63966;47.914;22.266;2024-03-07T08:35:00;10.35;;;5.07;;
75386;SDS011;63966;47.914;22.266;2024-03-07T08:38:11;9.48;;;4.78;;
75386;SDS011;63966;47.914;22.266;2024-03-07T08:41:15;10.57;;;5.03;;
75386;SDS011;63966;47.914;22.266;2024-03-07T08:44:18;8.30;;;5.00;;
75386;SDS011;63966;47.914;22.266;2024-03-07T08:47:22;8.35;;;4.35;;
75386;SDS011;63966;47.914;22.266;2024-03-07T08:50:26;8.65;;;4.18;;
75386;SDS011;63966;47.914;22.266;2024-03-07T08:53:31;9.95;;;3.63;;
75386;SDS011;63966;47.914;22.266;2024-03-07T08:56:36;7.97;;;4.20;;
75386;SDS011;63966;47.914;22.266;2024-03-07T09:32:09;11.02;;;4.95;;
75386;SDS011;63966;47.914;22.266;2024-03-07T09:35:12;10.23;;;5.20;;
75386;SDS011;63966;47.914;22.266;2024-03-07T09:38:17;10.93;;;5.82;;
75386;SDS011;63966;47.914;22.266;2024-03-07T09:41:20;9.07;;;5.07;;
75386;SDS011;63966;47.914;22.266;2024-03-07T09:44:27;10.20;;;4.57;;
75386;SDS011;63966;47.914;22.266;2024-03-07T09:47:31;9.85;;;5.63;;
75386;SDS011;63966;47.914;22.266;2024-03-07T09:50:35;11.05;;;4.53;;
75386;SDS011;63966;47.914;22.266;2024-03-07T09:53:40;10.32;;;5.45;;
75386;SDS011;63966;47.914;22.266;2024-03-07T09:56:47;8.93;;;4.07;;
75386;SDS011;63966;47.914;22.266;2024-03-07T09:59:51;10.37;;;5.27;;
75386;SDS011;63966;47.914;22.266;2024-03-07T10:02:58;11.88;;;6.05;;
75386;SDS011;63966;47.914;22.266;2024-03-07T10:06:26;9.60;;;5.20;;
75386;SDS011;63966;47.914;22.266;2024-03-07T10:09:34;11.07;;;5.80;;
75386;SDS011;63966;47.914;22.266;2024-03-07T10:12:40;11.40;;;6.20;;
75386;SDS011;63966;47.914;22.266;2024-03-07T10:15:45;10.67;;;5.30;;
75386;SDS011;63966;47.914;22.266;2024-03-07T10:19:32;12.75;;;6.28;;
75386;SDS011;63966;47.914;22.266;2024-03-07T10:22:36;11.52;;;6.28;;
75386;SDS011;63966;47.914;22.266;2024-03-07T10:25:40;11.95;;;6.47;;
75386;SDS011;63966;47.914;22.266;2024-03-07T10:28:45;12.43;;;6.17;;
75386;SDS011;63966;47.914;22.266;2024-03-07T10:31:50;11.57;;;6.00;;
75386;SDS011;63966;47.914;22.266;2024-03-07T10:35:06;12.68;;;6.40;;
75386;SDS011;63966;47.914;22.266;2024-03-07T10:38:10;10.38;;;5.80;;
75386;SDS011;63966;47.914;22.266;2024-03-07T10:41:17;11.32;;;6.15;;
75386;SDS011;63966;47.914;22.266;2024-03-07T10:44:24;14.77;;;6.97;;
75386;SDS011;63966;47.914;22.266;2024-03-07T10:47:30;11.37;;;5.87;;
75386;SDS011;63966;47.914;22.266;2024-03-07T10:57:38;12.57;;;6.28;;
75386;SDS011;63966;47.914;22.266;2024-03-07T11:00:36;12.33;;;6.50;;
75386;SDS011;63966;47.914;22.266;2024-03-07T11:03:48;13.33;;;6.53;;
75386;SDS011;63966;47.914;22.266;2024-03-07T11:06:55;11.40;;;6.10;;
75386;SDS011;63966;47.914;22.266;2024-03-07T11:13:30;12.60;;;6.22;;
75386;SDS011;63966;47.914;22.266;2024-03-07T11:16:36;11.00;;;5.33;;
75386;SDS011;63966;47.914;22.266;2024-03-07T11:19:46;11.37;;;6.40;;
75386;SDS011;63966;47.914;22.266;2024-03-07T11:22:50;11.68;;;6.90;;
75386;SDS011;63966;47.914;22.266;2024-03-07T11:26:04;12.02;;;5.93;;
75386;SDS011;63966;47.914;22.266;2024-03-07T11:29:38;14.30;;;6.88;;
75386;SDS011;63966;47.914;22.266;2024-03-07T11:32:50;11.97;;;6.53;;
75386;SDS011;63966;47.914;22.266;2024-03-07T11:35:57;12.37;;;5.83;;
75386;SDS011;63966;47.914;22.266;2024-03-07T11:39:04;13.85;;;6.95;;
75386;SDS011;63966;47.914;22.266;2024-03-07T11:42:26;13.07;;;7.30;;
75386;SDS011;63966;47.914;22.266;2024-03-07T11:45:32;13.98;;;7.35;;
75386;SDS011;63966;47.914;22.266;2024-03-07T11:48:41;12.53;;;7.10;;
75386;SDS011;63966;47.914;22.266;2024-03-07T11:51:45;12.97;;;7.43;;
75386;SDS011;63966;47.914;22.266;2024-03-07T11:54:50;13.60;;;6.90;;
75386;SDS011;63966;47.914;22.266;2024-03-07T11:57:54;11.90;;;6.10;;
75386;SDS011;63966;47.914;22.266;2024-03-07T12:01:22;13.70;;;6.88;;
75386;SDS011;63966;47.914;22.266;2024-03-07T12:04:58;12.60;;;6.97;;
75386;SDS011;63966;47.914;22.266;2024-03-07T12:08:27;12.73;;;7.00;;
75386;SDS011;63966;47.914;22.266;2024-03-07T12:11:32;15.05;;;7.05;;
75386;SDS011;63966;47.914;22.266;2024-03-07T12:14:39;12.00;;;6.47;;
75386;SDS011;63966;47.914;22.266;2024-03-07T12:17:46;13.18;;;6.78;;
75386;SDS011;63966;47.914;22.266;2024-03-07T12:20:52;14.97;;;7.60;;
75386;SDS011;63966;47.914;22.266;2024-03-07T12:24:24;13.73;;;7.37;;
75386;SDS011;63966;47.914;22.266;2024-03-07T12:28:12;13.95;;;7.15;;
75386;SDS011;63966;47.914;22.266;2024-03-07T12:31:23;14.43;;;7.60;;
75386;SDS011;63966;47.914;22.266;2024-03-07T12:34:27;11.85;;;6.75;;
75386;SDS011;63966;47.914;22.266;2024-03-07T12:37:35;11.60;;;6.20;;
75386;SDS011;63966;47.914;22.266;2024-03-07T12:40:41;16.97;;;6.67;;
75386;SDS011;63966;47.914;22.266;2024-03-07T12:43:48;10.88;;;5.95;;
75386;SDS011;63966;47.914;22.266;2024-03-07T12:46:52;12.27;;;6.65;;
75386;SDS011;63966;47.914;22.266;2024-03-07T12:49:58;14.23;;;6.47;;
75386;SDS011;63966;47.914;22.266;2024-03-07T12:53:11;14.23;;;6.87;;
75386;SDS011;63966;47.914;22.266;2024-03-07T12:56:15;12.03;;;7.00;;
75386;SDS011;63966;47.914;22.266;2024-03-07T12:59:22;11.23;;;6.75;;
75386;SDS011;63966;47.914;22.266;2024-03-07T13:02:26;13.10;;;6.50;;
75386;SDS011;63966;47.914;22.266;2024-03-07T13:05:32;8.80;;;4.95;;
75386;SDS011;63966;47.914;22.266;2024-03-07T13:08:38;13.20;;;6.93;;
75386;SDS011;63966;47.914;22.266;2024-03-07T13:11:43;11.83;;;6.80;;
75386;SDS011;63966;47.914;22.266;2024-03-07T13:14:50;12.40;;;6.72;;
75386;SDS011;63966;47.914;22.266;2024-03-07T13:17:54;16.90;;;7.40;;
75386;SDS011;63966;47.914;22.266;2024-03-07T13:20:58;13.55;;;6.97;;
75386;SDS011;63966;47.914;22.266;2024-03-07T13:24:01;12.60;;;6.40;;
75386;SDS011;63966;47.914;22.266;2024-03-07T13:27:05;13.63;;;7.00;;
75386;SDS011;63966;47.914;22.266;2024-03-07T13:30:14;12.13;;;6.15;;
75386;SDS011;63966;47.914;22.266;2024-03-07T13:33:25;11.38;;;6.20;;
75386;SDS011;63966;47.914;22.266;2024-03-07T13:36:30;13.00;;;7.30;;
75386;SDS011;63966;47.914;22.266;2024-03-07T13:39:35;14.63;;;7.50;;
75386;SDS011;63966;47.914;22.266;2024-03-07T13:42:40;13.67;;;7.03;;
75386;SDS011;63966;47.914;22.266;2024-03-07T13:45:43;11.60;;;6.28;;
75386;SDS011;63966;47.914;22.266;2024-03-07T13:48:47;14.52;;;6.63;;
75386;SDS011;63966;47.914;22.266;2024-03-07T13:52:10;12.55;;;6.15;;
75386;SDS011;63966;47.914;22.266;2024-03-07T13:55:20;9.60;;;5.03;;
75386;SDS011;63966;47.914;22.266;2024-03-07T14:22:52;17.13;;;9.60;;
75386;SDS011;63966;47.914;22.266;2024-03-07T14:37:23;16.27;;;7.88;;
75386;SDS011;63966;47.914;22.266;2024-03-07T14:40:31;13.10;;;7.05;;
75386;SDS011;63966;47.914;22.266;2024-03-07T14:43:35;18.25;;;8.00;;
75386;SDS011;63966;47.914;22.266;2024-03-07T14:46:39;23.30;;;9.83;;
75386;SDS011;63966;47.914;22.266;2024-03-07T14:49:45;13.90;;;7.97;;
75386;SDS011;63966;47.914;22.266;2024-03-07T14:52:49;17.95;;;9.57;;
75386;SDS011;63966;47.914;22.266;2024-03-07T14:55:53;18.23;;;8.82;;
75386;SDS011;63966;47.914;22.266;2024-03-07T14:58:58;14.25;;;7.88;;
75386;SDS011;63966;47.914;22.266;2024-03-07T15:02:03;21.30;;;8.47;;
75386;SDS011;63966;47.914;22.266;2024-03-07T15:05:14;15.63;;;7.77;;
75386;SDS011;63966;47.914;22.266;2024-03-07T15:08:18;17.67;;;10.32;;
75386;SDS011;63966;47.914;22.266;2024-03-07T15:11:34;17.30;;;8.88;;
75386;SDS011;63966;47.914;22.266;2024-03-07T15:14:40;14.23;;;7.30;;
75386;SDS011;63966;47.914;22.266;2024-03-07T15:17:46;15.07;;;8.47;;
75386;SDS011;63966;47.914;22.266;2024-03-07T15:20:50;22.17;;;10.47;;
75386;SDS011;63966;47.914;22.266;2024-03-07T15:23:53;17.83;;;8.68;;
75386;SDS011;63966;47.914;22.266;2024-03-07T15:26:57;18.50;;;9.00;;
75386;SDS011;63966;47.914;22.266;2024-03-07T15:30:01;18.83;;;8.60;;
75386;SDS011;63966;47.914;22.266;2024-03-07T15:33:13;22.90;;;10.07;;
75386;SDS011;63966;47.914;22.266;2024-03-07T15:36:18;22.83;;;10.23;;
75386;SDS011;63966;47.914;22.266;2024-03-07T15:39:23;19.45;;;9.70;;
75386;SDS011;63966;47.914;22.266;2024-03-07T15:42:32;17.50;;;9.27;;
75386;SDS011;63966;47.914;22.266;2024-03-07T15:45:35;18.55;;;9.15;;
75386;SDS011;63966;47.914;22.266;2024-03-07T15:48:39;16.63;;;8.40;;
75386;SDS011;63966;47.914;22.266;2024-03-07T15:51:46;20.40;;;9.53;;
75386;SDS011;63966;47.914;22.266;2024-03-07T15:54:50;17.58;;;8.93;;
75386;SDS011;63966;47.914;22.266;2024-03-07T15:57:54;20.13;;;10.23;;
75386;SDS011;63966;47.914;22.266;2024-03-07T16:00:59;25.20;;;11.50;;
75386;SDS011;63966;47.914;22.266;2024-03-07T16:04:04;19.73;;;11.07;;
75386;SDS011;63966;47.914;22.266;2024-03-07T16:07:09;22.27;;;12.07;;
75386;SDS011;63966;47.914;22.266;2024-03-07T16:10:12;22.98;;;12.35;;
75386;SDS011;63966;47.914;22.266;2024-03-07T16:13:16;19.73;;;11.55;;
75386;SDS011;63966;47.914;22.266;2024-03-07T16:16:20;18.63;;;10.80;;
75386;SDS011;63966;47.914;22.266;2024-03-07T16:19:24;19.77;;;11.57;;
75386;SDS011;63966;47.914;22.266;2024-03-07T16:22:28;21.07;;;10.73;;
75386;SDS011;63966;47.914;22.266;2024-03-07T16:25:33;21.60;;;12.40;;
75386;SDS011;63966;47.914;22.266;2024-03-07T16:28:42;20.75;;;12.23;;
75386;SDS011;63966;47.914;22.266;2024-03-07T16:31:45;21.45;;;12.30;;
75386;SDS011;63966;47.914;22.266;2024-03-07T16:34:49;20.37;;;13.13;;
75386;SDS011;63966;47.914;22.266;2024-03-07T16:37:54;23.67;;;13.90;;
75386;SDS011;63966;47.914;22.266;2024-03-07T16:40:58;22.33;;;12.25;;
75386;SDS011;63966;47.914;22.266;2024-03-07T16:44:04;25.40;;;13.50;;
75386;SDS011;63966;47.914;22.266;2024-03-07T16:47:07;25.25;;;15.50;;
75386;SDS011;63966;47.914;22.266;2024-03-07T16:50:13;31.60;;;19.27;;
75386;SDS011;63966;47.914;22.266;2024-03-07T16:53:16;35.23;;;19.07;;
75386;SDS011;63966;47.914;22.266;2024-03-07T16:56:20;34.40;;;19.95;;
75386;SDS011;63966;47.914;22.266;2024-03-07T16:59:23;26.92;;;15.15;;
75386;SDS011;63966;47.914;22.266;2024-03-07T17:02:27;59.08;;;32.45;;
75386;SDS011;63966;47.914;22.266;2024-03-07T17:05:35;51.03;;;30.00;;
75386;SDS011;63966;47.914;22.266;2024-03-07T17:08:47;40.80;;;23.57;;
75386;SDS011;63966;47.914;22.266;2024-03-07T17:11:51;46.22;;;26.33;;
75386;SDS011;63966;47.914;22.266;2024-03-07T17:14:54;35.22;;;20.23;;
75386;SDS011;63966;47.914;22.266;2024-03-07T17:17:58;34.53;;;22.08;;
75386;SDS011;63966;47.914;22.266;2024-03-07T17:21:03;39.30;;;23.50;;
75386;SDS011;63966;47.914;22.266;2024-03-07T17:24:09;33.80;;;22.77;;
75386;SDS011;63966;47.914;22.266;2024-03-07T17:27:12;32.15;;;18.23;;
75386;SDS011;63966;47.914;22.266;2024-03-07T17:30:16;27.80;;;17.50;;
75386;SDS011;63966;47.914;22.266;2024-03-07T17:33:24;29.13;;;15.60;;
75386;SDS011;63966;47.914;22.266;2024-03-07T17:36:29;24.87;;;14.87;;
75386;SDS011;63966;47.914;22.266;2024-03-07T17:39:35;33.20;;;17.50;;
75386;SDS011;63966;47.914;22.266;2024-03-07T17:42:39;40.10;;;22.10;;
75386;SDS011;63966;47.914;22.266;2024-03-07T17:45:47;30.33;;;16.75;;
75386;SDS011;63966;47.914;22.266;2024-03-07T17:48:52;32.05;;;15.18;;
75386;SDS011;63966;47.914;22.266;2024-03-07T17:51:56;31.17;;;15.77;;
75386;SDS011;63966;47.914;22.266;2024-03-07T17:55:00;32.67;;;16.23;;
75386;SDS011;63966;47.914;22.266;2024-03-07T17:58:03;32.97;;;17.67;;
75386;SDS011;63966;47.914;22.266;2024-03-07T18:01:07;31.52;;;16.52;;
75386;SDS011;63966;47.914;22.266;2024-03-07T18:04:11;31.83;;;16.98;;
75386;SDS011;63966;47.914;22.266;2024-03-07T18:07:15;30.17;;;16.50;;
75386;SDS011;63966;47.914;22.266;2024-03-07T18:10:20;26.77;;;14.53;;
75386;SDS011;63966;47.914;22.266;2024-03-07T18:13:24;27.15;;;16.13;;
75386;SDS011;63966;47.914;22.266;2024-03-07T18:16:28;27.00;;;16.40;;
75386;SDS011;63966;47.914;22.266;2024-03-07T18:19:34;32.00;;;17.27;;
75386;SDS011;63966;47.914;22.266;2024-03-07T18:22:38;28.30;;;15.80;;
75386;SDS011;63966;47.914;22.266;2024-03-07T18:25:43;27.10;;;15.20;;
75386;SDS011;63966;47.914;22.266;2024-03-07T18:28:48;29.95;;;15.70;;
75386;SDS011;63966;47.914;22.266;2024-03-07T18:31:54;28.00;;;15.73;;
75386;SDS011;63966;47.914;22.266;2024-03-07T18:34:57;24.33;;;14.27;;
75386;SDS011;63966;47.914;22.266;2024-03-07T18:38:01;21.03;;;11.83;;
75386;SDS011;63966;47.914;22.266;2024-03-07T18:41:09;20.13;;;11.30;;
75386;SDS011;63966;47.914;22.266;2024-03-07T18:44:14;24.98;;;13.27;;
75386;SDS011;63966;47.914;22.266;2024-03-07T18:47:19;21.48;;;12.32;;
75386;SDS011;63966;47.914;22.266;2024-03-07T18:50:24;31.38;;;14.20;;
75386;SDS011;63966;47.914;22.266;2024-03-07T18:53:28;24.30;;;13.13;;
75386;SDS011;63966;47.914;22.266;2024-03-07T18:56:35;49.80;;;23.57;;
75386;SDS011;63966;47.914;22.266;2024-03-07T18:59:40;57.13;;;24.73;;
75386;SDS011;63966;47.914;22.266;2024-03-07T19:02:44;51.95;;;24.40;;
75386;SDS011;63966;47.914;22.266;2024-03-07T19:05:48;66.07;;;28.60;;
75386;SDS011;63966;47.914;22.266;2024-03-07T19:08:54;58.97;;;25.33;;
75386;SDS011;63966;47.914;22.266;2024-03-07T19:12:00;36.77;;;17.17;;
75386;SDS011;63966;47.914;22.266;2024-03-07T19:15:04;26.80;;;14.05;;
75386;SDS011;63966;47.914;22.266;2024-03-07T19:18:09;26.27;;;12.88;;
75386;SDS011;63966;47.914;22.266;2024-03-07T19:21:15;23.65;;;12.20;;
75386;SDS011;63966;47.914;22.266;2024-03-07T19:24:19;22.13;;;11.93;;
75386;SDS011;63966;47.914;22.266;2024-03-07T19:27:24;22.87;;;12.07;;
75386;SDS011;63966;47.914;22.266;2024-03-07T19:30:28;21.75;;;12.50;;